XNO6897 LPMA-GCLA
Flight info
| Callsign | XNO6897 |
|---|---|
| Flight time | 0h 50m |
| Altitude | 33000 |
| Route | GOSGA DCT ORTIS |
| Aircraft | A320/M-SDE3FGHIRWY/LB1 |
Departure
| Time | 2026-04-21 17:02 |
|---|---|
| Airport | Cristiano Ronaldo International Airport (LPMA) |
Arrival
| Time | 2026-04-21 17:52 |
|---|---|
| Airport | La Palma Airport (GCLA) |
| Time | Latitude | Longitude | Altitude | Speed | Heading |
|---|---|---|---|---|---|
| 2026-04-21 16:28 | 32.69468 | -16.77519 | 175 ft | 0 kts | 137° |
| 2026-04-21 16:51 | 32.69469 | -16.77520 | 175 ft | 1 kts | 137° |
| 2026-04-21 16:51 | 32.69486 | -16.77539 | 177 ft | 4 kts | 137° |
| 2026-04-21 16:51 | 32.69503 | -16.77558 | 175 ft | 4 kts | 139° |
| 2026-04-21 16:51 | 32.69524 | -16.77572 | 174 ft | 4 kts | 197° |
| 2026-04-21 16:52 | 32.69542 | -16.77553 | 173 ft | 4 kts | 239° |
| 2026-04-21 16:52 | 32.69554 | -16.77532 | 174 ft | 0 kts | 226° |
| 2026-04-21 16:55 | 32.69546 | -16.77542 | 173 ft | 3 kts | 224° |
| 2026-04-21 16:55 | 32.69527 | -16.77563 | 174 ft | 3 kts | 224° |
| 2026-04-21 16:55 | 32.69497 | -16.77597 | 173 ft | 8 kts | 225° |
| 2026-04-21 16:56 | 32.69445 | -16.77658 | 171 ft | 13 kts | 226° |
| 2026-04-21 16:56 | 32.69372 | -16.77746 | 167 ft | 17 kts | 225° |
| 2026-04-21 16:56 | 32.69303 | -16.77834 | 168 ft | 13 kts | 232° |
| 2026-04-21 16:56 | 32.69292 | -16.77861 | 168 ft | 0 kts | 252° |
| 2026-04-21 16:59 | 32.69289 | -16.77881 | 167 ft | 6 kts | 264° |
| 2026-04-21 16:59 | 32.69286 | -16.77964 | 162 ft | 14 kts | 269° |
| 2026-04-21 17:00 | 32.69248 | -16.78067 | 161 ft | 17 kts | 228° |
| 2026-04-21 17:00 | 32.69141 | -16.78185 | 159 ft | 24 kts | 221° |
| 2026-04-21 17:00 | 32.69087 | -16.78240 | 160 ft | 6 kts | 230° |
| 2026-04-21 17:00 | 32.69104 | -16.78244 | 160 ft | 0 kts | 42° |
| 2026-04-21 17:01 | 32.69105 | -16.78242 | 160 ft | 6 kts | 42° |
| 2026-04-21 17:01 | 32.69370 | -16.77939 | 163 ft | 97 kts | 45° |
| 2026-04-21 17:01 | 32.70016 | -16.77187 | 218 ft | 157 kts | 43° |
| 2026-04-21 17:02 | 32.70764 | -16.76220 | 940 ft | 166 kts | 53° |
| 2026-04-21 17:02 | 32.71083 | -16.74874 | 1829 ft | 177 kts | 91° |
| 2026-04-21 17:02 | 32.70627 | -16.73498 | 2440 ft | 189 kts | 134° |
| 2026-04-21 17:02 | 32.69417 | -16.72775 | 2704 ft | 209 kts | 173° |
| 2026-04-21 17:03 | 32.67898 | -16.72534 | 3026 ft | 232 kts | 175° |
| 2026-04-21 17:03 | 32.66211 | -16.72291 | 3474 ft | 256 kts | 175° |
| 2026-04-21 17:03 | 32.64414 | -16.72031 | 4270 ft | 263 kts | 175° |
| 2026-04-21 17:03 | 32.62591 | -16.71756 | 5192 ft | 266 kts | 175° |
| 2026-04-21 17:04 | 32.60737 | -16.71468 | 5879 ft | 271 kts | 175° |
| 2026-04-21 17:04 | 32.58860 | -16.71173 | 6761 ft | 273 kts | 176° |
| 2026-04-21 17:04 | 32.56971 | -16.70873 | 7596 ft | 276 kts | 176° |
| 2026-04-21 17:04 | 32.55054 | -16.70569 | 8414 ft | 280 kts | 177° |
| 2026-04-21 17:05 | 32.53106 | -16.70260 | 9200 ft | 285 kts | 177° |
| 2026-04-21 17:05 | 32.51130 | -16.69946 | 9977 ft | 289 kts | 177° |
| 2026-04-21 17:05 | 32.49085 | -16.69624 | 10372 ft | 307 kts | 177° |
| 2026-04-21 17:05 | 32.46888 | -16.69281 | 10573 ft | 330 kts | 177° |
| 2026-04-21 17:06 | 32.44530 | -16.68911 | 10705 ft | 353 kts | 176° |
| 2026-04-21 17:06 | 32.42038 | -16.68516 | 11031 ft | 367 kts | 176° |
| 2026-04-21 17:06 | 32.39484 | -16.68102 | 11631 ft | 372 kts | 176° |
| 2026-04-21 17:06 | 32.36907 | -16.67680 | 12279 ft | 376 kts | 176° |
| 2026-04-21 17:07 | 32.35184 | -16.67399 | 12704 ft | 378 kts | 176° |
| 2026-04-21 17:07 | 32.31676 | -16.66830 | 13546 ft | 383 kts | 176° |
| 2026-04-21 17:07 | 32.29025 | -16.66404 | 14119 ft | 386 kts | 176° |
| 2026-04-21 17:07 | 32.26347 | -16.65979 | 14637 ft | 390 kts | 176° |
| 2026-04-21 17:08 | 32.23681 | -16.65557 | 15134 ft | 394 kts | 176° |
| 2026-04-21 17:08 | 32.20950 | -16.65125 | 15636 ft | 398 kts | 176° |
| 2026-04-21 17:08 | 32.18154 | -16.64684 | 16139 ft | 402 kts | 176° |
| 2026-04-21 17:08 | 32.15404 | -16.64251 | 16641 ft | 406 kts | 176° |
| 2026-04-21 17:09 | 32.09742 | -16.63357 | 17664 ft | 414 kts | 176° |
| 2026-04-21 17:09 | 32.06831 | -16.62912 | 18180 ft | 418 kts | 177° |
| 2026-04-21 17:09 | 32.03964 | -16.62545 | 18625 ft | 422 kts | 178° |
| 2026-04-21 17:10 | 32.01035 | -16.62224 | 19094 ft | 424 kts | 179° |
| 2026-04-21 17:10 | 31.98083 | -16.61928 | 19567 ft | 427 kts | 179° |
| 2026-04-21 17:10 | 31.95110 | -16.61635 | 20040 ft | 430 kts | 179° |
| 2026-04-21 17:10 | 31.92115 | -16.61331 | 20502 ft | 434 kts | 179° |
| 2026-04-21 17:11 | 31.89096 | -16.61012 | 20949 ft | 437 kts | 178° |
| 2026-04-21 17:11 | 31.86060 | -16.60682 | 21382 ft | 439 kts | 178° |
| 2026-04-21 17:11 | 31.83008 | -16.60343 | 21797 ft | 442 kts | 178° |
| 2026-04-21 17:11 | 31.79934 | -16.59998 | 22201 ft | 445 kts | 178° |
| 2026-04-21 17:12 | 31.76844 | -16.59651 | 22596 ft | 448 kts | 178° |
| 2026-04-21 17:12 | 31.73732 | -16.59306 | 22990 ft | 450 kts | 178° |
| 2026-04-21 17:12 | 31.70602 | -16.58961 | 23375 ft | 453 kts | 178° |
| 2026-04-21 17:12 | 31.67452 | -16.58619 | 23723 ft | 456 kts | 178° |
| 2026-04-21 17:13 | 31.64284 | -16.58276 | 24049 ft | 458 kts | 178° |
| 2026-04-21 17:13 | 31.61101 | -16.57929 | 24368 ft | 461 kts | 178° |
| 2026-04-21 17:13 | 31.57897 | -16.57581 | 24694 ft | 463 kts | 178° |
| 2026-04-21 17:13 | 31.54682 | -16.57232 | 25011 ft | 466 kts | 178° |
| 2026-04-21 17:14 | 31.51443 | -16.56879 | 25336 ft | 468 kts | 178° |
| 2026-04-21 17:14 | 31.48195 | -16.56521 | 25647 ft | 471 kts | 178° |
| 2026-04-21 17:14 | 31.44925 | -16.56158 | 25962 ft | 473 kts | 178° |
| 2026-04-21 17:14 | 31.41649 | -16.55793 | 26375 ft | 473 kts | 178° |
| 2026-04-21 17:15 | 31.38379 | -16.55437 | 26842 ft | 471 kts | 178° |
| 2026-04-21 17:15 | 31.35117 | -16.55093 | 27312 ft | 471 kts | 178° |
| 2026-04-21 17:15 | 31.31857 | -16.54744 | 27769 ft | 470 kts | 178° |
| 2026-04-21 17:15 | 31.28605 | -16.54411 | 28240 ft | 469 kts | 178° |
| 2026-04-21 17:16 | 31.25354 | -16.54085 | 28715 ft | 468 kts | 178° |
| 2026-04-21 17:16 | 31.22111 | -16.53763 | 29181 ft | 468 kts | 178° |
| 2026-04-21 17:16 | 31.18868 | -16.53464 | 29650 ft | 467 kts | 178° |
| 2026-04-21 17:16 | 31.15633 | -16.53144 | 30117 ft | 466 kts | 178° |
| 2026-04-21 17:17 | 31.12403 | -16.52810 | 30520 ft | 466 kts | 178° |
| 2026-04-21 17:17 | 31.09174 | -16.52466 | 30916 ft | 466 kts | 178° |
| 2026-04-21 17:17 | 31.05950 | -16.52121 | 31314 ft | 465 kts | 178° |
| 2026-04-21 17:17 | 31.02772 | -16.51788 | 31704 ft | 465 kts | 178° |
| 2026-04-21 17:18 | 30.99555 | -16.51457 | 32109 ft | 464 kts | 178° |
| 2026-04-21 17:18 | 30.96338 | -16.51127 | 32514 ft | 464 kts | 178° |
| 2026-04-21 17:18 | 30.93123 | -16.50802 | 32873 ft | 464 kts | 178° |
| 2026-04-21 17:18 | 30.89899 | -16.50475 | 32967 ft | 468 kts | 178° |
| 2026-04-21 17:19 | 30.83318 | -16.49803 | 32975 ft | 478 kts | 178° |
| 2026-04-21 17:19 | 30.76681 | -16.49121 | 32987 ft | 479 kts | 178° |
| 2026-04-21 17:20 | 30.70035 | -16.48444 | 32977 ft | 479 kts | 178° |
| 2026-04-21 17:20 | 30.63383 | -16.47775 | 32975 ft | 480 kts | 178° |
| 2026-04-21 17:21 | 30.56732 | -16.47096 | 32971 ft | 480 kts | 178° |
| 2026-04-21 17:21 | 30.50077 | -16.46422 | 32972 ft | 480 kts | 178° |
| 2026-04-21 17:22 | 30.43420 | -16.45747 | 32972 ft | 480 kts | 178° |
| 2026-04-21 17:22 | 30.36759 | -16.45072 | 32973 ft | 480 kts | 178° |
| 2026-04-21 17:23 | 30.30099 | -16.44404 | 32975 ft | 480 kts | 178° |
| 2026-04-21 17:23 | 30.23440 | -16.43729 | 32970 ft | 480 kts | 178° |
| 2026-04-21 17:24 | 30.16782 | -16.43055 | 32970 ft | 480 kts | 178° |
| 2026-04-21 17:24 | 30.10120 | -16.42387 | 32971 ft | 480 kts | 178° |
| 2026-04-21 17:25 | 30.03460 | -16.41726 | 32971 ft | 481 kts | 178° |
| 2026-04-21 17:25 | 29.96840 | -16.41064 | 32970 ft | 480 kts | 177° |
| 2026-04-21 17:26 | 29.90180 | -16.40386 | 32970 ft | 481 kts | 177° |
| 2026-04-21 17:26 | 29.83520 | -16.39712 | 32968 ft | 481 kts | 177° |
| 2026-04-21 17:27 | 29.76855 | -16.39052 | 32971 ft | 481 kts | 177° |
| 2026-04-21 17:27 | 29.70188 | -16.38392 | 32972 ft | 481 kts | 177° |
| 2026-04-21 17:28 | 29.64645 | -16.38059 | 32972 ft | 478 kts | 186° |
| 2026-04-21 17:28 | 29.58228 | -16.39641 | 32968 ft | 469 kts | 205° |
| 2026-04-21 17:29 | 29.51831 | -16.44180 | 32712 ft | 461 kts | 223° |
| 2026-04-21 17:29 | 29.50191 | -16.45736 | 32545 ft | 461 kts | 223° |
| 2026-04-21 17:29 | 29.47716 | -16.48081 | 32284 ft | 462 kts | 223° |
| 2026-04-21 17:30 | 29.45233 | -16.50425 | 32030 ft | 462 kts | 223° |
| 2026-04-21 17:30 | 29.42745 | -16.52765 | 31779 ft | 463 kts | 223° |
| 2026-04-21 17:30 | 29.40252 | -16.55105 | 31527 ft | 463 kts | 223° |
| 2026-04-21 17:30 | 29.37760 | -16.57447 | 31280 ft | 464 kts | 223° |
| 2026-04-21 17:31 | 29.35264 | -16.59793 | 31039 ft | 464 kts | 223° |
| 2026-04-21 17:31 | 29.32767 | -16.62140 | 30797 ft | 465 kts | 223° |
| 2026-04-21 17:31 | 29.30262 | -16.64487 | 30551 ft | 465 kts | 222° |
| 2026-04-21 17:31 | 29.27756 | -16.66832 | 30312 ft | 466 kts | 222° |
| 2026-04-21 17:32 | 29.25245 | -16.69182 | 29668 ft | 467 kts | 222° |
| 2026-04-21 17:32 | 29.22712 | -16.71556 | 28400 ft | 474 kts | 222° |
| 2026-04-21 17:32 | 29.20155 | -16.73955 | 27377 ft | 476 kts | 222° |
| 2026-04-21 17:32 | 29.17582 | -16.76365 | 26181 ft | 481 kts | 221° |
| 2026-04-21 17:33 | 29.14978 | -16.78804 | 24942 ft | 486 kts | 221° |
| 2026-04-21 17:33 | 29.12351 | -16.81261 | 23777 ft | 490 kts | 221° |
| 2026-04-21 17:33 | 29.09755 | -16.83681 | 22633 ft | 473 kts | 221° |
| 2026-04-21 17:33 | 29.07247 | -16.86011 | 21712 ft | 460 kts | 221° |
| 2026-04-21 17:34 | 29.04774 | -16.88309 | 20805 ft | 456 kts | 221° |
| 2026-04-21 17:34 | 29.02318 | -16.90593 | 19908 ft | 454 kts | 221° |
| 2026-04-21 17:34 | 28.99878 | -16.92866 | 19026 ft | 451 kts | 221° |
| 2026-04-21 17:34 | 28.97454 | -16.95126 | 18136 ft | 446 kts | 222° |
| 2026-04-21 17:35 | 28.95106 | -16.97315 | 17226 ft | 427 kts | 221° |
| 2026-04-21 17:35 | 28.92814 | -16.99452 | 16387 ft | 424 kts | 221° |
| 2026-04-21 17:35 | 28.90533 | -17.01575 | 15563 ft | 422 kts | 221° |
| 2026-04-21 17:35 | 28.88264 | -17.03683 | 14765 ft | 420 kts | 221° |
| 2026-04-21 17:36 | 28.86007 | -17.05778 | 13985 ft | 417 kts | 220° |
| 2026-04-21 17:36 | 28.83776 | -17.07845 | 13182 ft | 405 kts | 220° |
| 2026-04-21 17:36 | 28.81631 | -17.09826 | 12499 ft | 392 kts | 220° |
| 2026-04-21 17:36 | 28.79527 | -17.11774 | 11822 ft | 388 kts | 220° |
| 2026-04-21 17:37 | 28.77446 | -17.13700 | 11279 ft | 380 kts | 220° |
| 2026-04-21 17:37 | 28.75469 | -17.15530 | 11165 ft | 362 kts | 220° |
| 2026-04-21 17:37 | 28.73581 | -17.17276 | 11037 ft | 336 kts | 221° |
| 2026-04-21 17:37 | 28.71838 | -17.18884 | 10914 ft | 310 kts | 221° |
| 2026-04-21 17:38 | 28.70221 | -17.20379 | 10659 ft | 292 kts | 221° |
| 2026-04-21 17:38 | 28.68664 | -17.21817 | 10291 ft | 282 kts | 221° |
| 2026-04-21 17:38 | 28.67137 | -17.23228 | 10048 ft | 282 kts | 221° |
| 2026-04-21 17:38 | 28.65620 | -17.24630 | 9775 ft | 279 kts | 221° |
| 2026-04-21 17:39 | 28.64117 | -17.26021 | 9454 ft | 277 kts | 221° |
| 2026-04-21 17:39 | 28.62624 | -17.27401 | 9135 ft | 276 kts | 221° |
| 2026-04-21 17:39 | 28.61137 | -17.28776 | 8799 ft | 275 kts | 221° |
| 2026-04-21 17:39 | 28.59638 | -17.30162 | 8476 ft | 274 kts | 221° |
| 2026-04-21 17:40 | 28.58181 | -17.31506 | 8153 ft | 273 kts | 221° |
| 2026-04-21 17:40 | 28.56711 | -17.32857 | 7829 ft | 271 kts | 221° |
| 2026-04-21 17:40 | 28.55247 | -17.34207 | 7508 ft | 271 kts | 221° |
| 2026-04-21 17:40 | 28.53787 | -17.35553 | 7201 ft | 270 kts | 221° |
| 2026-04-21 17:41 | 28.52329 | -17.36892 | 6899 ft | 269 kts | 221° |
| 2026-04-21 17:41 | 28.50877 | -17.38224 | 6589 ft | 268 kts | 220° |
| 2026-04-21 17:41 | 28.49438 | -17.39542 | 6417 ft | 261 kts | 221° |
| 2026-04-21 17:41 | 28.48046 | -17.40819 | 6295 ft | 253 kts | 221° |
| 2026-04-21 17:42 | 28.46696 | -17.42057 | 6157 ft | 245 kts | 221° |
| 2026-04-21 17:42 | 28.46531 | -17.42209 | 6148 ft | 244 kts | 221° |
| 2026-04-21 17:42 | 28.45453 | -17.43208 | 6033 ft | 238 kts | 222° |
| 2026-04-21 17:42 | 28.44354 | -17.44575 | 5782 ft | 233 kts | 237° |
| 2026-04-21 17:43 | 28.43609 | -17.46192 | 5479 ft | 231 kts | 251° |
| 2026-04-21 17:43 | 28.43245 | -17.47963 | 5166 ft | 230 kts | 265° |
| 2026-04-21 17:43 | 28.43203 | -17.49775 | 4923 ft | 227 kts | 270° |
| 2026-04-21 17:43 | 28.43184 | -17.51541 | 4773 ft | 220 kts | 270° |
| 2026-04-21 17:44 | 28.43162 | -17.53267 | 4523 ft | 218 kts | 269° |
| 2026-04-21 17:44 | 28.43140 | -17.54984 | 4249 ft | 216 kts | 270° |
| 2026-04-21 17:44 | 28.43118 | -17.56695 | 3944 ft | 217 kts | 270° |
| 2026-04-21 17:44 | 28.43097 | -17.58404 | 3651 ft | 216 kts | 270° |
| 2026-04-21 17:45 | 28.43075 | -17.60114 | 3358 ft | 216 kts | 270° |
| 2026-04-21 17:45 | 28.43053 | -17.61819 | 3073 ft | 216 kts | 270° |
| 2026-04-21 17:45 | 28.43030 | -17.63522 | 2799 ft | 215 kts | 270° |
| 2026-04-21 17:45 | 28.43007 | -17.65221 | 2549 ft | 216 kts | 271° |
| 2026-04-21 17:46 | 28.42981 | -17.66909 | 2429 ft | 210 kts | 270° |
| 2026-04-21 17:46 | 28.42957 | -17.68527 | 2423 ft | 202 kts | 271° |
| 2026-04-21 17:46 | 28.42935 | -17.70112 | 2420 ft | 200 kts | 271° |
| 2026-04-21 17:46 | 28.42911 | -17.71683 | 2422 ft | 199 kts | 271° |
| 2026-04-21 17:47 | 28.43070 | -17.73197 | 2422 ft | 194 kts | 293° |
| 2026-04-21 17:47 | 28.43813 | -17.74448 | 2425 ft | 191 kts | 321° |
| 2026-04-21 17:47 | 28.44972 | -17.75147 | 2430 ft | 191 kts | 347° |
| 2026-04-21 17:47 | 28.46291 | -17.75253 | 2435 ft | 191 kts | 360° |
| 2026-04-21 17:48 | 28.47187 | -17.75266 | 2431 ft | 191 kts | 359° |
| 2026-04-21 17:48 | 28.48941 | -17.75298 | 2434 ft | 189 kts | 359° |
| 2026-04-21 17:48 | 28.50192 | -17.75322 | 2432 ft | 171 kts | 359° |
| 2026-04-21 17:48 | 28.51358 | -17.75344 | 2207 ft | 167 kts | 358° |
| 2026-04-21 17:49 | 28.52508 | -17.75366 | 1961 ft | 162 kts | 359° |
| 2026-04-21 17:49 | 28.53591 | -17.75387 | 1739 ft | 148 kts | 359° |
| 2026-04-21 17:49 | 28.54582 | -17.75407 | 1553 ft | 137 kts | 360° |
| 2026-04-21 17:49 | 28.55523 | -17.75425 | 1359 ft | 134 kts | 360° |
| 2026-04-21 17:50 | 28.56444 | -17.75427 | 1194 ft | 132 kts | 360° |
| 2026-04-21 17:50 | 28.57358 | -17.75446 | 1024 ft | 132 kts | 357° |
| 2026-04-21 17:50 | 28.58270 | -17.75486 | 818 ft | 130 kts | 358° |
| 2026-04-21 17:50 | 28.59174 | -17.75495 | 666 ft | 131 kts | 0° |
| 2026-04-21 17:51 | 28.60081 | -17.75510 | 460 ft | 129 kts | 360° |
| 2026-04-21 17:51 | 28.60983 | -17.75521 | 309 ft | 130 kts | 359° |
| 2026-04-21 17:51 | 28.61888 | -17.75540 | 133 ft | 130 kts | 359° |
| 2026-04-21 17:51 | 28.62637 | -17.75560 | 96 ft | 71 kts | 359° |
| 2026-04-21 17:52 | 28.62840 | -17.75563 | 92 ft | 2 kts | 358° |
| 2026-04-21 17:52 | 28.62876 | -17.75574 | 89 ft | 9 kts | 345° |
| 2026-04-21 17:52 | 28.62937 | -17.75582 | 87 ft | 0 kts | 8° |
| 2026-04-21 17:52 | 28.62939 | -17.75575 | 90 ft | 1 kts | 73° |
| 2026-04-21 17:53 | 28.62937 | -17.75573 | 90 ft | 0 kts | 100° |
| 2026-04-21 17:53 | 28.62921 | -17.75565 | 91 ft | 6 kts | 164° |
| 2026-04-21 17:53 | 28.62856 | -17.75561 | 89 ft | 12 kts | 177° |
| 2026-04-21 17:53 | 28.62764 | -17.75558 | 93 ft | 14 kts | 179° |
| 2026-04-21 17:54 | 28.62670 | -17.75538 | 95 ft | 14 kts | 153° |
| 2026-04-21 17:54 | 28.62593 | -17.75470 | 97 ft | 14 kts | 146° |
| 2026-04-21 17:54 | 28.62527 | -17.75449 | 98 ft | 8 kts | 174° |
| 2026-04-21 17:54 | 28.62470 | -17.75445 | 100 ft | 8 kts | 177° |
| 2026-04-21 17:55 | 28.62409 | -17.75443 | 101 ft | 9 kts | 181° |
| 2026-04-21 17:55 | 28.62368 | -17.75443 | 102 ft | 3 kts | 180° |
| 2026-04-21 17:55 | 28.62347 | -17.75438 | 102 ft | 3 kts | 143° |
| 2026-04-21 17:55 | 28.62336 | -17.75406 | 102 ft | 5 kts | 102° |
| 2026-04-21 17:56 | 28.62335 | -17.75382 | 102 ft | 0 kts | 91° |
| 2026-04-21 17:56 | 28.62335 | -17.75372 | 102 ft | 0 kts | 89° |
| 2026-04-21 17:56 | 28.62335 | -17.75367 | 102 ft | 0 kts | 89° |
| 2026-04-21 17:56 | 28.62335 | -17.75365 | 102 ft | 0 kts | 89° |